sensor_id;sensor_type;location;lat;lon;timestamp;pressure;altitude;pressure_sealevel;temperature;humidity
35878;BME280;21982;49.804;24.072;2023-12-22T00:00:37;94118.44;;;5.75;59.72
35878;BME280;21982;49.804;24.072;2023-12-22T00:03:02;94047.84;;;5.45;59.66
35878;BME280;21982;49.804;24.072;2023-12-22T00:05:28;94125.22;;;5.87;59.59
35878;BME280;21982;49.804;24.072;2023-12-22T00:07:53;94126.03;;;5.88;59.75
35878;BME280;21982;49.804;24.072;2023-12-22T00:10:19;93969.88;;;4.83;60.16
35878;BME280;21982;49.804;24.072;2023-12-22T00:12:44;94108.22;;;5.90;59.98
35878;BME280;21982;49.804;24.072;2023-12-22T00:15:10;94063.28;;;5.58;59.98
35878;BME280;21982;49.804;24.072;2023-12-22T00:17:35;94108.88;;;5.97;59.51
35878;BME280;21982;49.804;24.072;2023-12-22T00:20:01;94116.03;;;6.01;59.82
35878;BME280;21982;49.804;24.072;2023-12-22T00:22:28;93955.34;;;4.92;59.83
35878;BME280;21982;49.804;24.072;2023-12-22T00:24:54;94117.16;;;6.05;59.24
35878;BME280;21982;49.804;24.072;2023-12-22T00:27:19;94111.91;;;6.05;59.21
35878;BME280;21982;49.804;24.072;2023-12-22T00:29:44;93873.88;;;4.37;58.94
35878;BME280;21982;49.804;24.072;2023-12-22T00:32:10;94113.50;;;6.07;59.48
35878;BME280;21982;49.804;24.072;2023-12-22T00:34:36;94027.97;;;5.49;59.29
35878;BME280;21982;49.804;24.072;2023-12-22T00:37:01;94137.13;;;6.07;59.09
35878;BME280;21982;49.804;24.072;2023-12-22T00:39:27;94127.66;;;6.05;59.61
35878;BME280;21982;49.804;24.072;2023-12-22T00:41:52;94061.78;;;5.62;59.72
35878;BME280;21982;49.804;24.072;2023-12-22T00:44:18;94079.00;;;5.58;59.74
35878;BME280;21982;49.804;24.072;2023-12-22T00:46:44;94054.78;;;5.51;59.44
35878;BME280;21982;49.804;24.072;2023-12-22T00:49:10;94032.69;;;5.35;59.62
35878;BME280;21982;49.804;24.072;2023-12-22T00:51:35;94107.69;;;5.76;59.98
35878;BME280;21982;49.804;24.072;2023-12-22T00:54:00;94127.38;;;5.90;60.39
35878;BME280;21982;49.804;24.072;2023-12-22T00:56:26;94081.56;;;5.53;59.88
35878;BME280;21982;49.804;24.072;2023-12-22T00:58:51;94129.13;;;5.85;60.62
35878;BME280;21982;49.804;24.072;2023-12-22T01:01:17;94077.31;;;5.80;60.43
35878;BME280;21982;49.804;24.072;2023-12-22T01:03:42;94078.53;;;5.44;60.76
35878;BME280;21982;49.804;24.072;2023-12-22T01:06:09;94126.53;;;5.73;61.28
35878;BME280;21982;49.804;24.072;2023-12-22T01:08:36;94039.78;;;5.06;61.17
35878;BME280;21982;49.804;24.072;2023-12-22T01:11:02;94144.41;;;5.59;61.81
35878;BME280;21982;49.804;24.072;2023-12-22T01:13:29;94105.19;;;5.53;61.92
35878;BME280;21982;49.804;24.072;2023-12-22T01:15:54;94036.38;;;4.94;62.58
35878;BME280;21982;49.804;24.072;2023-12-22T01:18:20;94089.63;;;5.34;62.39
35878;BME280;21982;49.804;24.072;2023-12-22T01:20:45;94077.75;;;5.03;62.75
35878;BME280;21982;49.804;24.072;2023-12-22T01:23:10;94030.75;;;4.74;63.09
35878;BME280;21982;49.804;24.072;2023-12-22T01:25:36;94099.72;;;5.14;63.75
35878;BME280;21982;49.804;24.072;2023-12-22T01:28:01;94014.59;;;4.53;63.80
35878;BME280;21982;49.804;24.072;2023-12-22T01:30:29;94118.50;;;5.23;63.99
35878;BME280;21982;49.804;24.072;2023-12-22T01:32:54;94059.94;;;4.77;64.51
35878;BME280;21982;49.804;24.072;2023-12-22T01:35:20;94101.03;;;4.88;64.96
35878;BME280;21982;49.804;24.072;2023-12-22T01:37:45;94006.22;;;4.28;64.92
35878;BME280;21982;49.804;24.072;2023-12-22T01:40:13;94122.34;;;4.92;65.65
35878;BME280;21982;49.804;24.072;2023-12-22T01:42:38;94086.81;;;4.72;65.91
35878;BME280;21982;49.804;24.072;2023-12-22T01:45:05;94114.38;;;4.87;66.67
35878;BME280;21982;49.804;24.072;2023-12-22T01:47:31;94053.69;;;4.55;66.55
35878;BME280;21982;49.804;24.072;2023-12-22T01:49:56;93979.38;;;3.97;66.43
35878;BME280;21982;49.804;24.072;2023-12-22T01:52:22;94110.88;;;4.81;66.77
35878;BME280;21982;49.804;24.072;2023-12-22T01:54:47;94109.72;;;4.77;67.35
35878;BME280;21982;49.804;24.072;2023-12-22T01:57:15;94084.44;;;4.71;67.65
35878;BME280;21982;49.804;24.072;2023-12-22T01:59:43;94057.59;;;4.41;67.67
35878;BME280;21982;49.804;24.072;2023-12-22T02:02:08;93992.13;;;4.06;67.76
35878;BME280;21982;49.804;24.072;2023-12-22T02:04:34;94102.91;;;4.76;68.15
35878;BME280;21982;49.804;24.072;2023-12-22T02:07:02;94113.50;;;4.81;67.93
35878;BME280;21982;49.804;24.072;2023-12-22T02:09:29;94109.50;;;4.79;68.54
35878;BME280;21982;49.804;24.072;2023-12-22T02:11:55;94112.13;;;4.79;68.40
35878;BME280;21982;49.804;24.072;2023-12-22T02:17:02;94080.09;;;4.77;68.26
35878;BME280;21982;49.804;24.072;2023-12-22T02:19:45;94095.81;;;4.77;68.36
35878;BME280;21982;49.804;24.072;2023-12-22T02:22:12;94052.00;;;4.49;68.98
35878;BME280;21982;49.804;24.072;2023-12-22T02:24:41;94024.66;;;4.33;68.55
35878;BME280;21982;49.804;24.072;2023-12-22T02:30:09;94094.81;;;4.78;68.45
35878;BME280;21982;49.804;24.072;2023-12-22T02:32:38;94091.16;;;4.79;69.17
35878;BME280;21982;49.804;24.072;2023-12-22T02:35:09;94076.00;;;4.81;69.07
35878;BME280;21982;49.804;24.072;2023-12-22T02:37:35;94050.94;;;4.61;69.10
35878;BME280;21982;49.804;24.072;2023-12-22T02:40:02;94077.59;;;4.82;69.00
35878;BME280;21982;49.804;24.072;2023-12-22T02:42:29;94078.16;;;4.84;68.79
35878;BME280;21982;49.804;24.072;2023-12-22T02:44:57;94026.59;;;4.49;68.72
35878;BME280;21982;49.804;24.072;2023-12-22T02:47:23;94076.56;;;4.83;68.76
35878;BME280;21982;49.804;24.072;2023-12-22T02:49:48;94055.50;;;4.66;68.98
35878;BME280;21982;49.804;24.072;2023-12-22T02:52:14;94050.03;;;4.56;68.85
35878;BME280;21982;49.804;24.072;2023-12-22T02:54:39;94098.19;;;4.90;68.73
35878;BME280;21982;49.804;24.072;2023-12-22T02:57:07;94020.78;;;4.47;68.09
35878;BME280;21982;49.804;24.072;2023-12-22T02:59:32;94061.06;;;4.69;69.02
35878;BME280;21982;49.804;24.072;2023-12-22T03:01:57;93824.59;;;3.07;68.80
35878;BME280;21982;49.804;24.072;2023-12-22T03:04:23;94104.22;;;4.90;68.76
35878;BME280;21982;49.804;24.072;2023-12-22T03:06:48;94025.47;;;4.33;68.69
35878;BME280;21982;49.804;24.072;2023-12-22T03:09:14;94098.19;;;4.90;68.79
35878;BME280;21982;49.804;24.072;2023-12-22T03:11:39;94100.81;;;4.90;69.08
35878;BME280;21982;49.804;24.072;2023-12-22T03:14:04;94111.84;;;4.92;68.69
35878;BME280;21982;49.804;24.072;2023-12-22T03:16:30;94066.88;;;4.71;69.06
35878;BME280;21982;49.804;24.072;2023-12-22T03:18:55;94101.38;;;4.92;69.20
35878;BME280;21982;49.804;24.072;2023-12-22T03:21:20;94036.97;;;4.44;68.57
35878;BME280;21982;49.804;24.072;2023-12-22T03:23:47;94108.22;;;4.93;69.06
35878;BME280;21982;49.804;24.072;2023-12-22T03:26:12;93984.28;;;4.06;68.69
35878;BME280;21982;49.804;24.072;2023-12-22T03:28:37;94066.78;;;4.66;68.83
35878;BME280;21982;49.804;24.072;2023-12-22T03:31:03;94048.31;;;4.61;69.16
35878;BME280;21982;49.804;24.072;2023-12-22T03:33:29;94067.22;;;4.63;68.97
35878;BME280;21982;49.804;24.072;2023-12-22T03:35:54;94107.06;;;5.00;68.79
35878;BME280;21982;49.804;24.072;2023-12-22T03:38:19;93919.66;;;3.71;68.85
35878;BME280;21982;49.804;24.072;2023-12-22T03:40:45;94071.63;;;4.86;68.87
35878;BME280;21982;49.804;24.072;2023-12-22T03:43:11;93813.91;;;3.20;68.08
35878;BME280;21982;49.804;24.072;2023-12-22T03:45:36;94103.50;;;5.07;68.62
35878;BME280;21982;49.804;24.072;2023-12-22T03:48:01;94087.69;;;4.90;68.59
35878;BME280;21982;49.804;24.072;2023-12-22T03:50:27;94017.94;;;4.49;68.42
35878;BME280;21982;49.804;24.072;2023-12-22T03:52:53;94118.31;;;5.13;68.13
35878;BME280;21982;49.804;24.072;2023-12-22T03:55:18;93776.63;;;2.78;68.49
35878;BME280;21982;49.804;24.072;2023-12-22T03:57:43;94017.50;;;4.40;68.22
35878;BME280;21982;49.804;24.072;2023-12-22T04:00:09;94052.88;;;4.66;68.34
35878;BME280;21982;49.804;24.072;2023-12-22T04:02:34;94109.09;;;5.10;68.50
35878;BME280;21982;49.804;24.072;2023-12-22T04:05:00;94109.22;;;5.03;68.60
35878;BME280;21982;49.804;24.072;2023-12-22T04:07:25;94112.88;;;5.02;68.73
35878;BME280;21982;49.804;24.072;2023-12-22T04:09:50;94094.41;;;4.97;68.54
35878;BME280;21982;49.804;24.072;2023-12-22T04:12:16;93988.56;;;4.23;68.58
35878;BME280;21982;49.804;24.072;2023-12-22T04:14:41;94059.94;;;4.65;68.97
35878;BME280;21982;49.804;24.072;2023-12-22T04:17:07;94096.47;;;4.95;69.10
35878;BME280;21982;49.804;24.072;2023-12-22T04:19:33;94027.63;;;4.36;69.28
35878;BME280;21982;49.804;24.072;2023-12-22T04:21:58;94125.53;;;4.94;69.38
35878;BME280;21982;49.804;24.072;2023-12-22T04:24:23;94122.78;;;5.00;69.05
35878;BME280;21982;49.804;24.072;2023-12-22T04:26:49;94122.56;;;5.02;69.12
35878;BME280;21982;49.804;24.072;2023-12-22T04:29:14;94115.31;;;4.81;69.63
35878;BME280;21982;49.804;24.072;2023-12-22T04:31:40;93992.38;;;4.16;69.43
35878;BME280;21982;49.804;24.072;2023-12-22T04:34:05;94058.81;;;4.61;69.76
35878;BME280;21982;49.804;24.072;2023-12-22T04:36:31;93948.78;;;3.75;69.27
35878;BME280;21982;49.804;24.072;2023-12-22T04:38:56;94015.91;;;4.27;69.74
35878;BME280;21982;49.804;24.072;2023-12-22T04:41:22;94123.47;;;4.96;69.68
35878;BME280;21982;49.804;24.072;2023-12-22T04:43:47;94109.69;;;4.89;69.65
35878;BME280;21982;49.804;24.072;2023-12-22T04:46:12;94138.84;;;5.04;69.96
35878;BME280;21982;49.804;24.072;2023-12-22T04:48:38;94128.16;;;4.94;70.06
35878;BME280;21982;49.804;24.072;2023-12-22T04:51:03;94143.41;;;5.09;69.99
35878;BME280;21982;49.804;24.072;2023-12-22T04:53:29;94134.84;;;5.13;69.79
35878;BME280;21982;49.804;24.072;2023-12-22T04:55:54;94008.84;;;4.40;69.55
35878;BME280;21982;49.804;24.072;2023-12-22T04:58:19;94046.03;;;4.77;69.43
35878;BME280;21982;49.804;24.072;2023-12-22T05:00:45;94115.81;;;5.18;69.42
35878;BME280;21982;49.804;24.072;2023-12-22T05:03:10;94137.78;;;5.28;69.50
35878;BME280;21982;49.804;24.072;2023-12-22T05:05:36;94133.88;;;5.31;69.47
35878;BME280;21982;49.804;24.072;2023-12-22T05:08:01;94123.53;;;5.24;69.44
35878;BME280;21982;49.804;24.072;2023-12-22T05:10:27;94144.81;;;5.39;69.17
35878;BME280;21982;49.804;24.072;2023-12-22T05:12:53;94104.81;;;5.21;68.81
35878;BME280;21982;49.804;24.072;2023-12-22T05:15:19;94149.41;;;5.32;68.92
35878;BME280;21982;49.804;24.072;2023-12-22T05:17:44;94046.84;;;4.54;68.86
35878;BME280;21982;49.804;24.072;2023-12-22T05:20:10;94096.84;;;4.76;68.62
35878;BME280;21982;49.804;24.072;2023-12-22T05:22:39;94165.13;;;4.81;68.34
35878;BME280;21982;49.804;24.072;2023-12-22T05:25:05;94196.00;;;4.79;69.16
35878;BME280;21982;49.804;24.072;2023-12-22T05:27:30;94205.66;;;4.66;69.25
35878;BME280;21982;49.804;24.072;2023-12-22T05:29:56;94080.91;;;3.95;69.20
35878;BME280;21982;49.804;24.072;2023-12-22T05:32:26;94118.59;;;4.06;68.85
35878;BME280;21982;49.804;24.072;2023-12-22T05:34:52;94198.84;;;4.65;69.00
35878;BME280;21982;49.804;24.072;2023-12-22T05:37:17;94194.16;;;4.67;68.84
35878;BME280;21982;49.804;24.072;2023-12-22T05:39:43;94144.34;;;4.21;68.55
35878;BME280;21982;49.804;24.072;2023-12-22T05:42:10;94224.81;;;4.67;68.16
35878;BME280;21982;49.804;24.072;2023-12-22T05:44:36;94217.88;;;4.72;68.00
35878;BME280;21982;49.804;24.072;2023-12-22T05:47:04;94185.16;;;4.40;67.75
35878;BME280;21982;49.804;24.072;2023-12-22T05:49:29;94233.34;;;4.62;67.50
35878;BME280;21982;49.804;24.072;2023-12-22T05:51:54;94224.78;;;4.55;67.72
35878;BME280;21982;49.804;24.072;2023-12-22T05:54:20;94157.75;;;4.01;68.15
35878;BME280;21982;49.804;24.072;2023-12-22T05:56:45;94121.94;;;3.72;68.08
35878;BME280;21982;49.804;24.072;2023-12-22T05:59:11;94202.75;;;4.10;68.00
35878;BME280;21982;49.804;24.072;2023-12-22T06:01:36;94129.13;;;3.76;68.00
35878;BME280;21982;49.804;24.072;2023-12-22T06:04:02;94218.75;;;4.43;68.40
35878;BME280;21982;49.804;24.072;2023-12-22T06:06:27;94185.91;;;4.29;68.29
35878;BME280;21982;49.804;24.072;2023-12-22T06:08:53;94211.47;;;4.57;68.06
35878;BME280;21982;49.804;24.072;2023-12-22T06:11:18;94209.19;;;4.60;68.22
35878;BME280;21982;49.804;24.072;2023-12-22T06:13:44;94213.63;;;4.60;67.72
35878;BME280;21982;49.804;24.072;2023-12-22T06:16:13;94150.41;;;4.33;67.56
35878;BME280;21982;49.804;24.072;2023-12-22T06:18:40;94160.44;;;4.36;67.57
35878;BME280;21982;49.804;24.072;2023-12-22T06:21:06;94199.16;;;4.57;67.63
35878;BME280;21982;49.804;24.072;2023-12-22T06:23:32;94100.56;;;3.86;67.78
35878;BME280;21982;49.804;24.072;2023-12-22T06:25:57;93922.03;;;2.73;67.43
35878;BME280;21982;49.804;24.072;2023-12-22T06:28:22;93750.28;;;1.55;67.00
35878;BME280;21982;49.804;24.072;2023-12-22T06:30:48;94199.84;;;4.41;67.01
35878;BME280;21982;49.804;24.072;2023-12-22T06:33:13;94076.72;;;3.53;67.28
35878;BME280;21982;49.804;24.072;2023-12-22T06:38:14;93950.75;;;2.73;66.80
35878;BME280;21982;49.804;24.072;2023-12-22T06:40:39;94186.84;;;4.34;66.63
35878;BME280;21982;49.804;24.072;2023-12-22T06:43:04;94235.94;;;4.51;66.73
35878;BME280;21982;49.804;24.072;2023-12-22T06:45:30;94156.16;;;4.00;66.46
35878;BME280;21982;49.804;24.072;2023-12-22T06:47:56;94198.31;;;4.22;66.10
35878;BME280;21982;49.804;24.072;2023-12-22T06:50:21;94053.25;;;3.05;66.24
35878;BME280;21982;49.804;24.072;2023-12-22T06:55:22;94106.06;;;3.55;66.36
35878;BME280;21982;49.804;24.072;2023-12-22T06:57:47;94081.25;;;3.46;65.66
35878;BME280;21982;49.804;24.072;2023-12-22T07:00:13;94221.59;;;4.42;66.27
35878;BME280;21982;49.804;24.072;2023-12-22T07:02:39;94200.06;;;3.98;66.05
35878;BME280;21982;49.804;24.072;2023-12-22T07:07:46;94262.00;;;4.34;66.10
35878;BME280;21982;49.804;24.072;2023-12-22T07:10:12;94274.09;;;4.35;65.84
35878;BME280;21982;49.804;24.072;2023-12-22T07:12:44;94268.75;;;4.42;65.80
35878;BME280;21982;49.804;24.072;2023-12-22T07:15:10;94120.94;;;3.43;66.02
35878;BME280;21982;49.804;24.072;2023-12-22T07:17:36;94281.50;;;4.38;66.08
35878;BME280;21982;49.804;24.072;2023-12-22T07:20:01;94285.28;;;4.42;65.56
35878;BME280;21982;49.804;24.072;2023-12-22T07:22:29;94258.97;;;4.19;65.64
35878;BME280;21982;49.804;24.072;2023-12-22T07:24:54;94286.88;;;4.43;65.27
35878;BME280;21982;49.804;24.072;2023-12-22T07:27:22;94286.44;;;4.46;65.60
35878;BME280;21982;49.804;24.072;2023-12-22T07:29:47;94278.97;;;4.31;65.52
35878;BME280;21982;49.804;24.072;2023-12-22T07:32:13;94293.84;;;4.49;65.48
35878;BME280;21982;49.804;24.072;2023-12-22T07:34:39;94224.78;;;4.02;65.54
35878;BME280;21982;49.804;24.072;2023-12-22T07:37:10;94304.19;;;4.56;65.79
35878;BME280;21982;49.804;24.072;2023-12-22T07:39:37;94057.31;;;3.00;65.65
35878;BME280;21982;49.804;24.072;2023-12-22T07:42:25;94314.00;;;4.60;65.65
35878;BME280;21982;49.804;24.072;2023-12-22T07:44:53;94260.84;;;4.30;65.52
35878;BME280;21982;49.804;24.072;2023-12-22T07:47:19;94245.59;;;4.27;65.29
35878;BME280;21982;49.804;24.072;2023-12-22T07:49:44;94310.16;;;4.63;65.67
35878;BME280;21982;49.804;24.072;2023-12-22T07:52:10;94309.34;;;4.62;65.31
35878;BME280;21982;49.804;24.072;2023-12-22T07:54:35;94298.88;;;4.62;65.44
35878;BME280;21982;49.804;24.072;2023-12-22T07:57:01;94119.44;;;3.47;65.51
35878;BME280;21982;49.804;24.072;2023-12-22T07:59:27;94092.56;;;3.28;65.45
35878;BME280;21982;49.804;24.072;2023-12-22T08:01:52;94318.09;;;4.56;65.38
35878;BME280;21982;49.804;24.072;2023-12-22T08:04:18;94292.69;;;4.57;65.54
35878;BME280;21982;49.804;24.072;2023-12-22T08:06:44;94152.28;;;3.61;65.36
35878;BME280;21982;49.804;24.072;2023-12-22T08:09:09;94290.75;;;4.52;65.27
35878;BME280;21982;49.804;24.072;2023-12-22T08:11:36;94259.69;;;4.26;65.32
35878;BME280;21982;49.804;24.072;2023-12-22T08:14:01;94170.88;;;3.53;65.12
35878;BME280;21982;49.804;24.072;2023-12-22T08:16:28;94228.28;;;3.96;65.56
35878;BME280;21982;49.804;24.072;2023-12-22T08:18:54;94246.41;;;3.97;65.36
35878;BME280;21982;49.804;24.072;2023-12-22T08:21:20;94297.81;;;4.22;65.62
35878;BME280;21982;49.804;24.072;2023-12-22T08:23:45;94287.97;;;4.06;65.42
35878;BME280;21982;49.804;24.072;2023-12-22T08:26:10;94304.66;;;4.23;65.36
35878;BME280;21982;49.804;24.072;2023-12-22T08:28:37;94316.59;;;4.19;65.48
35878;BME280;21982;49.804;24.072;2023-12-22T08:31:03;94215.56;;;3.51;65.01
35878;BME280;21982;49.804;24.072;2023-12-22T08:33:29;93874.31;;;1.26;65.14
35878;BME280;21982;49.804;24.072;2023-12-22T08:35:54;94212.78;;;3.34;64.85
35878;BME280;21982;49.804;24.072;2023-12-22T08:38:19;94315.63;;;4.01;65.08
35878;BME280;21982;49.804;24.072;2023-12-22T08:40:45;94293.84;;;3.71;64.72
35878;BME280;21982;49.804;24.072;2023-12-22T08:43:12;94168.53;;;2.96;64.96
35878;BME280;21982;49.804;24.072;2023-12-22T08:45:37;94331.47;;;4.07;64.55
35878;BME280;21982;49.804;24.072;2023-12-22T08:48:04;94060.03;;;2.39;64.10
35878;BME280;21982;49.804;24.072;2023-12-22T08:50:33;93985.03;;;1.91;64.46
35878;BME280;21982;49.804;24.072;2023-12-22T08:52:58;94346.66;;;4.16;64.29
35878;BME280;21982;49.804;24.072;2023-12-22T08:55:23;94092.81;;;2.53;63.99
35878;BME280;21982;49.804;24.072;2023-12-22T08:57:49;94345.91;;;4.27;63.83
35878;BME280;21982;49.804;24.072;2023-12-22T09:00:14;94342.63;;;4.32;63.91
35878;BME280;21982;49.804;24.072;2023-12-22T09:02:40;94313.97;;;4.19;63.79
35878;BME280;21982;49.804;24.072;2023-12-22T09:05:06;94314.41;;;4.34;63.99
35878;BME280;21982;49.804;24.072;2023-12-22T09:07:32;94185.78;;;3.82;63.73
35878;BME280;21982;49.804;24.072;2023-12-22T09:09:58;94345.31;;;4.97;63.46
35878;BME280;21982;49.804;24.072;2023-12-22T09:12:24;94351.28;;;5.04;63.38
35878;BME280;21982;49.804;24.072;2023-12-22T09:14:50;94295.25;;;4.87;63.48
35878;BME280;21982;49.804;24.072;2023-12-22T09:17:15;94302.81;;;5.07;62.79
35878;BME280;21982;49.804;24.072;2023-12-22T09:19:41;94321.41;;;5.28;62.31
35878;BME280;21982;49.804;24.072;2023-12-22T09:22:08;94165.63;;;4.24;62.14
35878;BME280;21982;49.804;24.072;2023-12-22T09:24:33;94164.38;;;4.15;61.64
35878;BME280;21982;49.804;24.072;2023-12-22T09:26:59;94164.25;;;4.10;61.95
35878;BME280;21982;49.804;24.072;2023-12-22T09:29:29;94353.00;;;5.10;61.96
35878;BME280;21982;49.804;24.072;2023-12-22T09:31:55;94352.63;;;4.95;62.11
35878;BME280;21982;49.804;24.072;2023-12-22T09:34:21;94348.16;;;4.95;62.01
35878;BME280;21982;49.804;24.072;2023-12-22T09:36:46;94301.00;;;4.42;62.03
35878;BME280;21982;49.804;24.072;2023-12-22T09:39:11;94344.16;;;4.81;61.80
35878;BME280;21982;49.804;24.072;2023-12-22T09:41:43;94353.38;;;4.72;60.95
35878;BME280;21982;49.804;24.072;2023-12-22T09:44:13;94124.13;;;2.96;60.81
35878;BME280;21982;49.804;24.072;2023-12-22T09:46:40;94311.81;;;4.46;60.57
35878;BME280;21982;49.804;24.072;2023-12-22T09:49:07;94111.06;;;3.26;60.41
35878;BME280;21982;49.804;24.072;2023-12-22T09:51:33;94228.56;;;4.06;60.60
35878;BME280;21982;49.804;24.072;2023-12-22T09:54:00;94283.00;;;4.46;60.31
35878;BME280;21982;49.804;24.072;2023-12-22T09:56:27;94138.16;;;3.32;60.14
35878;BME280;21982;49.804;24.072;2023-12-22T09:58:53;94241.44;;;4.08;60.30
35878;BME280;21982;49.804;24.072;2023-12-22T10:01:21;94139.13;;;3.49;59.92
35878;BME280;21982;49.804;24.072;2023-12-22T10:03:48;94135.28;;;3.52;59.95
35878;BME280;21982;49.804;24.072;2023-12-22T10:06:14;94352.38;;;4.85;59.77
35878;BME280;21982;49.804;24.072;2023-12-22T10:08:42;94278.81;;;4.26;60.08
35878;BME280;21982;49.804;24.072;2023-12-22T10:11:08;94369.69;;;4.74;59.59
35878;BME280;21982;49.804;24.072;2023-12-22T10:13:36;94356.47;;;4.81;59.60
35878;BME280;21982;49.804;24.072;2023-12-22T10:16:04;94331.34;;;4.61;59.67
35878;BME280;21982;49.804;24.072;2023-12-22T10:18:29;94362.91;;;4.66;59.28
35878;BME280;21982;49.804;24.072;2023-12-22T10:20:55;94380.25;;;4.67;59.44
35878;BME280;21982;49.804;24.072;2023-12-22T10:23:20;94374.66;;;4.64;59.39
35878;BME280;21982;49.804;24.072;2023-12-22T10:25:45;94372.25;;;4.62;59.31
35878;BME280;21982;49.804;24.072;2023-12-22T10:28:11;94368.38;;;4.65;59.39
35878;BME280;21982;49.804;24.072;2023-12-22T10:30:37;94315.41;;;4.33;59.21
35878;BME280;21982;49.804;24.072;2023-12-22T10:33:06;94356.09;;;4.65;58.75
35878;BME280;21982;49.804;24.072;2023-12-22T10:35:32;94346.00;;;4.51;58.84
35878;BME280;21982;49.804;24.072;2023-12-22T10:37:58;94309.97;;;4.34;58.56
35878;BME280;21982;49.804;24.072;2023-12-22T10:40:24;94268.19;;;4.10;58.64
35878;BME280;21982;49.804;24.072;2023-12-22T10:45:26;94070.47;;;2.94;58.16
35878;BME280;21982;49.804;24.072;2023-12-22T10:47:51;94353.22;;;5.67;58.26
35878;BME280;21982;49.804;24.072;2023-12-22T10:50:19;94345.09;;;6.44;57.17
35878;BME280;21982;49.804;24.072;2023-12-22T10:52:49;94352.19;;;6.71;55.83
35878;BME280;21982;49.804;24.072;2023-12-22T10:55:16;94319.63;;;6.44;55.92
35878;BME280;21982;49.804;24.072;2023-12-22T10:57:45;94225.34;;;5.91;55.17
35878;BME280;21982;49.804;24.072;2023-12-22T11:00:11;94325.28;;;6.24;55.39
35878;BME280;21982;49.804;24.072;2023-12-22T11:02:42;94349.66;;;6.20;55.38
35878;BME280;21982;49.804;24.072;2023-12-22T11:05:10;94243.75;;;5.16;55.32
35878;BME280;21982;49.804;24.072;2023-12-22T11:07:36;94359.28;;;5.56;56.00
35878;BME280;21982;49.804;24.072;2023-12-22T11:10:04;94340.34;;;5.19;56.04
35878;BME280;21982;49.804;24.072;2023-12-22T11:12:38;94354.38;;;5.24;56.04
35878;BME280;21982;49.804;24.072;2023-12-22T11:15:04;94345.22;;;5.03;56.40
35878;BME280;21982;49.804;24.072;2023-12-22T11:17:33;94071.78;;;3.33;56.62
35878;BME280;21982;49.804;24.072;2023-12-22T11:20:01;94329.41;;;5.10;56.66
35878;BME280;21982;49.804;24.072;2023-12-22T11:22:28;94183.75;;;4.26;56.17
35878;BME280;21982;49.804;24.072;2023-12-22T11:24:57;94305.22;;;5.31;56.57
35878;BME280;21982;49.804;24.072;2023-12-22T11:27:25;94338.63;;;5.36;55.72
35878;BME280;21982;49.804;24.072;2023-12-22T11:29:52;94225.72;;;4.49;55.66
35878;BME280;21982;49.804;24.072;2023-12-22T11:32:20;94340.78;;;5.04;55.75
35878;BME280;21982;49.804;24.072;2023-12-22T11:34:47;94345.00;;;5.05;55.76
35878;BME280;21982;49.804;24.072;2023-12-22T11:37:13;94222.53;;;4.47;55.75
35878;BME280;21982;49.804;24.072;2023-12-22T11:39:40;94256.63;;;4.82;55.31
35878;BME280;21982;49.804;24.072;2023-12-22T11:49:55;94289.03;;;7.17;52.09
35878;BME280;21982;49.804;24.072;2023-12-22T11:52:27;94107.66;;;6.71;51.76
35878;BME280;21982;49.804;24.072;2023-12-22T11:54:57;94381.41;;;8.48;51.16
35878;BME280;21982;49.804;24.072;2023-12-22T11:57:39;94341.50;;;8.39;50.57
35878;BME280;21982;49.804;24.072;2023-12-22T12:08:08;94327.69;;;7.16;50.34
35878;BME280;21982;49.804;24.072;2023-12-22T12:10:54;94346.53;;;7.25;50.18
35878;BME280;21982;49.804;24.072;2023-12-22T12:13:31;94330.63;;;7.92;49.77
35878;BME280;21982;49.804;24.072;2023-12-22T12:16:03;94263.13;;;8.13;48.82
35878;BME280;21982;49.804;24.072;2023-12-22T12:19:02;94317.59;;;9.36;47.60
35878;BME280;21982;49.804;24.072;2023-12-22T12:21:32;94206.78;;;9.10;46.41
35878;BME280;21982;49.804;24.072;2023-12-22T12:24:06;94304.91;;;10.23;45.81
35878;BME280;21982;49.804;24.072;2023-12-22T12:26:50;94225.88;;;9.74;45.16
35878;BME280;21982;49.804;24.072;2023-12-22T12:29:26;94306.50;;;9.77;45.06
35878;BME280;21982;49.804;24.072;2023-12-22T12:31:51;94258.78;;;9.09;45.23
35878;BME280;21982;49.804;24.072;2023-12-22T12:34:16;94251.59;;;9.41;44.79
35878;BME280;21982;49.804;24.072;2023-12-22T12:36:46;94272.66;;;9.73;44.15
35878;BME280;21982;49.804;24.072;2023-12-22T12:39:15;94202.91;;;9.69;43.91
35878;BME280;21982;49.804;24.072;2023-12-22T12:41:41;94322.75;;;10.58;43.35
35878;BME280;21982;49.804;24.072;2023-12-22T12:44:09;94281.72;;;10.55;43.28
35878;BME280;21982;49.804;24.072;2023-12-22T12:46:36;94341.91;;;11.16;42.68
35878;BME280;21982;49.804;24.072;2023-12-22T12:49:11;94225.50;;;10.13;42.55
35878;BME280;21982;49.804;24.072;2023-12-22T12:51:55;94328.88;;;10.68;45.10
35878;BME280;21982;49.804;24.072;2023-12-22T12:54:20;94196.41;;;9.35;43.71
35878;BME280;21982;49.804;24.072;2023-12-22T12:56:46;94343.25;;;10.25;43.70
35878;BME280;21982;49.804;24.072;2023-12-22T12:59:16;94329.00;;;9.84;43.33
35878;BME280;21982;49.804;24.072;2023-12-22T13:01:44;94287.06;;;8.82;43.31
35878;BME280;21982;49.804;24.072;2023-12-22T13:04:11;94333.06;;;8.64;43.85
35878;BME280;21982;49.804;24.072;2023-12-22T13:06:50;94281.66;;;7.74;44.40
35878;BME280;21982;49.804;24.072;2023-12-22T13:09:17;94185.09;;;6.64;45.09
35878;BME280;21982;49.804;24.072;2023-12-22T13:11:43;93805.84;;;3.85;45.92
35878;BME280;21982;49.804;24.072;2023-12-22T13:14:11;93802.97;;;3.47;46.15
35878;BME280;21982;49.804;24.072;2023-12-22T13:16:38;94205.44;;;5.66;46.33
35878;BME280;21982;49.804;24.072;2023-12-22T13:19:04;94279.50;;;5.68;47.14
35878;BME280;21982;49.804;24.072;2023-12-22T13:21:30;94127.81;;;5.02;47.37
35878;BME280;21982;49.804;24.072;2023-12-22T13:24:14;94307.44;;;5.86;47.57
35878;BME280;21982;49.804;24.072;2023-12-22T13:26:44;94062.38;;;4.09;48.24
35878;BME280;21982;49.804;24.072;2023-12-22T13:29:11;94307.38;;;5.46;48.48